Time;durP1;ratioP1;P1;durP2;ratioP2;P2;SDS_P1;SDS_P2;PMS_P1;PMS_P2;Temp;Humidity;BMP_temperature;BMP_pressure;BME280_temperature;BME280_humidity;BME280_pressure;Samples;Min_cycle;Max_cycle;Signal;HPM_P1;HPM_P2
2024/01/23 00:01:02;;;;;;;6.32;1.70;;;5.20;99.90;;;;;;5042701;28;20547;-81
2024/01/23 00:03:28;;;;;;;15.80;2.30;;;5.20;99.90;;;;;;5048853;28;20362;-83
2024/01/23 00:05:55;;;;;;;3.63;1.60;;;5.20;99.90;;;;;;5048148;28;20581;-79
2024/01/23 00:08:20;;;;;;;5.10;1.50;;;5.10;99.90;;;;;;5054224;28;20112;-80
2024/01/23 00:10:46;;;;;;;5.60;1.80;;;5.10;99.90;;;;;;5032894;28;20119;-79
2024/01/23 00:13:11;;;;;;;7.60;2.15;;;5.10;99.90;;;;;;5028598;28;20021;-79
2024/01/23 00:15:37;;;;;;;11.32;2.08;;;5.10;99.90;;;;;;5054313;28;20020;-79
2024/01/23 00:18:03;;;;;;;7.35;2.10;;;5.00;99.90;;;;;;5043615;28;20453;-79
2024/01/23 00:20:28;;;;;;;15.68;2.92;;;5.00;99.90;;;;;;5052926;28;20163;-78
2024/01/23 00:22:55;;;;;;;15.68;3.28;;;5.10;99.90;;;;;;5044670;28;20060;-80
2024/01/23 00:25:20;;;;;;;20.98;3.65;;;5.10;99.90;;;;;;5051140;28;20027;-79
2024/01/23 00:27:46;;;;;;;21.42;3.58;;;5.20;99.90;;;;;;5043720;28;20057;-80
2024/01/23 00:30:12;;;;;;;27.40;4.68;;;5.20;99.90;;;;;;5042915;28;20040;-83
2024/01/23 00:32:38;;;;;;;31.98;4.90;;;5.30;99.90;;;;;;5053646;28;20043;-80
2024/01/23 00:35:04;;;;;;;27.70;3.92;;;5.30;99.90;;;;;;5029964;28;20080;-79
2024/01/23 00:37:31;;;;;;;35.53;5.78;;;5.40;99.90;;;;;;5042572;28;20446;-79
2024/01/23 00:39:59;;;;;;;30.02;4.55;;;5.40;99.90;;;;;;5044934;28;20029;-80
2024/01/23 00:42:24;;;;;;;27.58;4.95;;;5.50;99.90;;;;;;5047700;28;20025;-79
2024/01/23 00:44:50;;;;;;;27.33;4.32;;;5.60;99.90;;;;;;5052546;28;20547;-81
2024/01/23 00:47:16;;;;;;;29.60;4.60;;;5.60;99.90;;;;;;5047816;28;20123;-84
2024/01/23 00:49:41;;;;;;;18.58;3.03;;;5.60;99.90;;;;;;5051760;28;20040;-85
2024/01/23 00:52:07;;;;;;;19.67;3.45;;;5.60;99.90;;;;;;5036724;28;20026;-82
2024/01/23 00:54:33;;;;;;;21.75;4.82;;;5.70;99.90;;;;;;5043808;28;20032;-82
2024/01/23 00:56:58;;;;;;;16.35;2.80;;;5.70;99.90;;;;;;5045532;28;20060;-85
2024/01/23 00:59:24;;;;;;;15.73;3.33;;;5.70;99.90;;;;;;5059385;28;20058;-78
2024/01/23 01:01:49;;;;;;;18.77;3.67;;;5.70;99.90;;;;;;5042953;28;20028;-81
2024/01/23 01:04:15;;;;;;;12.43;2.88;;;5.60;99.90;;;;;;5057173;28;21256;-81
2024/01/23 01:06:40;;;;;;;16.05;2.58;;;5.60;99.90;;;;;;5048858;28;20539;-81
2024/01/23 01:09:06;;;;;;;20.75;3.15;;;5.60;99.90;;;;;;5055100;28;20303;-79
2024/01/23 01:11:32;;;;;;;8.93;2.40;;;5.50;99.90;;;;;;5043496;28;20049;-80
2024/01/23 01:13:58;;;;;;;16.88;2.30;;;5.40;99.90;;;;;;5048435;28;20062;-82
2024/01/23 01:16:26;;;;;;;12.90;3.13;;;5.40;99.90;;;;;;5046262;28;20032;-80
2024/01/23 01:18:53;;;;;;;12.90;2.53;;;5.30;99.90;;;;;;5052555;28;20171;-81
2024/01/23 01:21:18;;;;;;;14.50;2.63;;;5.30;99.90;;;;;;5026106;28;20042;-81
2024/01/23 01:23:44;;;;;;;11.95;3.42;;;5.20;99.90;;;;;;5032861;28;20033;-80
2024/01/23 01:26:10;;;;;;;10.40;3.03;;;5.20;99.90;;;;;;5022329;28;20124;-78
2024/01/23 01:28:37;;;;;;;16.55;2.80;;;5.10;99.90;;;;;;5029479;28;20117;-84
2024/01/23 01:31:02;;;;;;;15.43;3.28;;;5.10;99.90;;;;;;5029922;28;20116;-84
2024/01/23 01:33:28;;;;;;;15.10;2.63;;;5.00;99.90;;;;;;5037772;28;20151;-83
2024/01/23 01:35:54;;;;;;;11.50;2.40;;;5.00;99.90;;;;;;5031750;28;20029;-82
2024/01/23 01:38:20;;;;;;;8.05;2.38;;;5.00;99.90;;;;;;5028618;28;20046;-79
2024/01/23 01:40:46;;;;;;;12.38;2.72;;;5.00;99.90;;;;;;5032239;28;20025;-79
2024/01/23 01:43:29;;;;;;;11.90;2.60;;;5.00;99.90;;;;;;5040668;28;20017;-79
2024/01/23 01:46:13;;;;;;;17.60;2.83;;;5.00;99.90;;;;;;5023476;28;20132;-81
2024/01/23 01:48:40;;;;;;;11.50;3.47;;;5.00;99.90;;;;;;5025876;28;20022;-81
2024/01/23 01:51:06;;;;;;;6.38;1.92;;;5.00;99.90;;;;;;5032700;28;20622;-80
2024/01/23 01:53:32;;;;;;;5.68;1.67;;;4.90;99.90;;;;;;5028730;28;20049;-82
2024/01/23 01:55:58;;;;;;;8.70;2.10;;;4.90;99.90;;;;;;5029710;28;20481;-81
2024/01/23 01:58:27;;;;;;;5.20;1.50;;;4.80;99.90;;;;;;5030270;28;20044;-80
2024/01/23 02:00:55;;;;;;;4.25;1.42;;;4.80;99.90;;;;;;5039751;28;20033;-81
2024/01/23 02:03:25;;;;;;;5.85;1.48;;;4.60;99.90;;;;;;5034665;28;20121;-81
2024/01/23 02:05:51;;;;;;;1.33;1.23;;;4.50;99.90;;;;;;5029795;28;20187;-80
2024/01/23 02:08:17;;;;;;;2.08;1.30;;;4.50;99.90;;;;;;5027344;28;20032;-80
2024/01/23 02:10:43;;;;;;;3.15;1.00;;;4.40;99.90;;;;;;5023720;28;20029;-80
2024/01/23 02:13:09;;;;;;;2.65;1.23;;;4.40;99.90;;;;;;5021855;28;20033;-80
2024/01/23 02:15:35;;;;;;;1.33;1.00;;;4.40;99.90;;;;;;5022297;28;20541;-82
2024/01/23 02:18:03;;;;;;;2.90;1.00;;;4.40;99.90;;;;;;5027988;28;20117;-80
2024/01/23 02:20:29;;;;;;;0.88;0.88;;;4.40;99.90;;;;;;5023090;28;20029;-80
2024/01/23 02:22:55;;;;;;;1.25;1.08;;;4.50;99.90;;;;;;5059330;28;20032;-80
2024/01/23 02:25:20;;;;;;;3.03;1.02;;;4.40;99.90;;;;;;5036607;28;20354;-80
2024/01/23 02:27:46;;;;;;;2.65;1.35;;;4.40;99.90;;;;;;5043916;28;20490;-79
2024/01/23 02:30:12;;;;;;;5.47;1.30;;;4.40;99.90;;;;;;5048428;28;20596;-80
2024/01/23 02:32:45;;;;;;;1.30;1.20;;;4.30;99.90;;;;;;5055995;28;20036;-81
2024/01/23 02:35:10;;;;;;;1.20;1.10;;;4.30;99.90;;;;;;5058994;28;20036;-86
2024/01/23 02:37:37;;;;;;;3.47;1.55;;;4.30;99.90;;;;;;5050462;28;20051;-85
2024/01/23 02:40:03;;;;;;;5.40;2.08;;;4.20;99.90;;;;;;5044386;28;20032;-80
2024/01/23 02:42:29;;;;;;;4.25;1.35;;;4.20;99.90;;;;;;5045151;28;20481;-81
2024/01/23 02:44:54;;;;;;;12.85;1.60;;;4.20;99.90;;;;;;5051326;28;20031;-80
2024/01/23 02:47:23;;;;;;;9.50;3.35;;;4.20;99.90;;;;;;5045054;28;20067;-82
2024/01/23 02:49:51;;;;;;;15.25;1.83;;;4.20;99.90;;;;;;5057374;28;20029;-79
2024/01/23 02:52:18;;;;;;;10.05;2.05;;;4.30;99.90;;;;;;5046760;28;20032;-84
2024/01/23 02:54:44;;;;;;;7.82;2.35;;;4.30;99.90;;;;;;5055202;28;20029;-80
2024/01/23 02:57:12;;;;;;;22.77;3.08;;;4.20;99.90;;;;;;5056646;28;20389;-80
2024/01/23 02:59:38;;;;;;;12.48;2.72;;;4.30;99.90;;;;;;5045248;28;20032;-78
2024/01/23 03:02:03;;;;;;;14.38;2.50;;;4.40;99.90;;;;;;5047877;28;20477;-80
2024/01/23 03:04:30;;;;;;;21.42;2.83;;;4.40;99.90;;;;;;5056176;28;20028;-79
2024/01/23 03:06:56;;;;;;;25.10;3.35;;;4.50;99.90;;;;;;5044361;28;20090;-79
2024/01/23 03:09:22;;;;;;;15.80;2.55;;;4.60;99.90;;;;;;5052495;28;20105;-81
2024/01/23 03:11:47;;;;;;;40.88;4.80;;;4.60;99.90;;;;;;5053590;28;20051;-80
2024/01/23 03:14:13;;;;;;;18.52;3.15;;;4.60;99.90;;;;;;5053203;28;20021;-79
2024/01/23 03:16:38;;;;;;;24.50;3.97;;;4.70;99.90;;;;;;5042163;28;20469;-81
2024/01/23 03:19:04;;;;;;;27.10;4.88;;;4.70;99.90;;;;;;5022653;28;20022;-78
2024/01/23 03:21:30;;;;;;;18.02;3.47;;;4.70;99.90;;;;;;5052364;28;20381;-78
2024/01/23 03:23:58;;;;;;;16.70;3.90;;;4.70;99.90;;;;;;5026951;28;20035;-80
2024/01/23 03:26:25;;;;;;;23.05;4.15;;;4.80;99.90;;;;;;5031568;28;20078;-78
2024/01/23 03:28:50;;;;;;;22.35;3.40;;;4.80;99.90;;;;;;5026597;28;20070;-80
2024/01/23 03:31:16;;;;;;;22.15;4.05;;;4.80;99.90;;;;;;5052240;28;20032;-79
2024/01/23 03:33:42;;;;;;;21.83;3.75;;;4.90;99.90;;;;;;5051547;28;20028;-84
2024/01/23 03:36:08;;;;;;;33.13;3.72;;;4.90;99.90;;;;;;5046013;28;20037;-80
2024/01/23 03:38:33;;;;;;;21.35;3.80;;;4.90;99.90;;;;;;5028222;28;20481;-80
2024/01/23 03:40:59;;;;;;;25.73;3.88;;;4.90;99.90;;;;;;5040144;28;20035;-80
2024/01/23 03:43:25;;;;;;;22.65;3.70;;;4.90;99.90;;;;;;5049851;28;20021;-80
2024/01/23 03:45:50;;;;;;;25.40;4.23;;;5.00;99.90;;;;;;5043829;28;20032;-79
2024/01/23 03:48:18;;;;;;;20.58;3.63;;;4.90;99.90;;;;;;5047859;28;20304;-80
2024/01/23 03:50:45;;;;;;;26.02;3.65;;;4.90;99.90;;;;;;5021209;28;20501;-81
2024/01/23 03:53:10;;;;;;;27.13;3.90;;;5.00;99.90;;;;;;5046362;28;20306;-78
2024/01/23 03:55:36;;;;;;;21.65;3.83;;;5.00;99.90;;;;;;5047695;28;20487;-81
2024/01/23 03:58:02;;;;;;;21.08;3.55;;;5.00;99.90;;;;;;5044718;28;20370;-79
2024/01/23 04:00:28;;;;;;;24.88;4.20;;;5.00;99.90;;;;;;5040055;28;20032;-78
2024/01/23 04:02:57;;;;;;;20.58;3.63;;;5.00;99.90;;;;;;5038630;28;20032;-78
2024/01/23 04:05:23;;;;;;;25.05;4.43;;;5.00;99.90;;;;;;5046493;28;20052;-79
2024/01/23 04:07:48;;;;;;;20.33;3.70;;;5.00;99.90;;;;;;5059704;28;20133;-81
2024/01/23 04:10:14;;;;;;;21.40;4.80;;;5.10;99.90;;;;;;5032299;28;20036;-79
2024/01/23 04:12:43;;;;;;;29.17;4.38;;;5.10;99.90;;;;;;5048285;28;20033;-79
2024/01/23 04:15:09;;;;;;;21.15;4.28;;;5.00;99.90;;;;;;5050177;28;20024;-78
2024/01/23 04:17:34;;;;;;;28.17;4.35;;;5.00;99.90;;;;;;5046535;28;20505;-78
2024/01/23 04:20:00;;;;;;;22.00;3.95;;;5.00;99.90;;;;;;5050587;28;20053;-80
2024/01/23 04:22:26;;;;;;;21.00;3.53;;;5.00;99.90;;;;;;5046769;28;20471;-79
2024/01/23 04:24:51;;;;;;;20.02;5.22;;;5.00;99.90;;;;;;5043717;28;20424;-78
2024/01/23 04:27:17;;;;;;;27.05;5.25;;;5.00;99.90;;;;;;5049949;28;20045;-81
2024/01/23 04:29:42;;;;;;;16.42;3.67;;;5.00;99.90;;;;;;5051153;28;20496;-80
2024/01/23 04:32:08;;;;;;;22.90;3.40;;;5.00;99.90;;;;;;5054462;28;20124;-80
2024/01/23 04:34:34;;;;;;;28.58;4.22;;;5.00;99.90;;;;;;5046775;28;20320;-80
2024/01/23 04:36:59;;;;;;;13.18;2.72;;;4.90;99.90;;;;;;5059196;28;20021;-78
2024/01/23 04:39:25;;;;;;;5.28;2.00;;;4.90;99.90;;;;;;5050414;28;20025;-79
2024/01/23 04:41:51;;;;;;;19.90;3.00;;;4.90;99.90;;;;;;5044096;28;20029;-86
2024/01/23 04:44:17;;;;;;;8.30;2.63;;;5.00;99.90;;;;;;5050670;28;20047;-80
2024/01/23 04:46:45;;;;;;;13.75;2.10;;;4.80;99.90;;;;;;5054783;28;20054;-79
2024/01/23 04:49:11;;;;;;;8.60;2.30;;;4.80;99.90;;;;;;5047047;28;20083;-82
2024/01/23 04:51:37;;;;;;;10.48;2.30;;;4.80;99.90;;;;;;5052093;28;20028;-80
2024/01/23 04:54:02;;;;;;;14.38;2.92;;;4.80;99.90;;;;;;5041554;28;20037;-82
2024/01/23 04:56:28;;;;;;;13.20;2.10;;;4.80;99.90;;;;;;5048881;28;20024;-80
2024/01/23 04:58:53;;;;;;;16.20;3.00;;;4.70;99.90;;;;;;5054467;28;20039;-79
2024/01/23 05:01:19;;;;;;;12.57;2.30;;;4.70;99.90;;;;;;5051635;28;20481;-80
2024/01/23 05:03:45;;;;;;;9.48;2.08;;;4.70;99.90;;;;;;5041357;28;20065;-82
2024/01/23 05:06:11;;;;;;;14.23;2.45;;;4.70;99.90;;;;;;5029066;28;20484;-86
2024/01/23 05:08:37;;;;;;;9.52;2.20;;;4.60;99.90;;;;;;5043499;28;20056;-85
2024/01/23 05:11:03;;;;;;;11.95;2.40;;;4.60;99.90;;;;;;5053893;28;20052;-87
2024/01/23 05:13:30;;;;;;;8.45;2.10;;;4.70;99.90;;;;;;5023276;28;20021;-78
2024/01/23 05:15:56;;;;;;;10.95;2.20;;;4.70;99.90;;;;;;5037322;28;20029;-81
2024/01/23 05:18:22;;;;;;;21.00;3.50;;;4.70;99.90;;;;;;5036423;28;20021;-80
2024/01/23 05:20:48;;;;;;;9.43;2.97;;;4.70;99.90;;;;;;5036073;28;20498;-81
2024/01/23 05:23:13;;;;;;;13.75;2.88;;;4.70;99.90;;;;;;5047199;28;20024;-80
2024/01/23 05:25:41;;;;;;;11.27;2.83;;;4.60;99.90;;;;;;5044425;28;20029;-82
2024/01/23 05:28:06;;;;;;;21.40;2.95;;;4.60;99.90;;;;;;5045538;28;20691;-81
2024/01/23 05:30:33;;;;;;;16.17;2.88;;;4.60;99.90;;;;;;5042302;28;20029;-84
2024/01/23 05:33:03;;;;;;;9.88;2.08;;;4.60;99.90;;;;;;5041972;28;20103;-79
2024/01/23 05:35:30;;;;;;;12.52;2.83;;;4.70;99.90;;;;;;5050890;28;20020;-78
2024/01/23 05:37:56;;;;;;;8.13;2.53;;;4.60;99.90;;;;;;5046173;28;20272;-79
2024/01/23 05:40:21;;;;;;;13.13;2.25;;;4.70;99.90;;;;;;5035894;28;20033;-82
2024/01/23 05:42:47;;;;;;;10.50;2.13;;;4.60;99.90;;;;;;5039529;28;20032;-82
2024/01/23 05:45:13;;;;;;;13.15;2.35;;;4.60;99.90;;;;;;5036103;28;20068;-82
2024/01/23 05:47:38;;;;;;;9.57;2.60;;;4.60;99.90;;;;;;5042963;28;20221;-80
2024/01/23 05:50:05;;;;;;;17.17;2.20;;;4.70;99.90;;;;;;5047913;28;20070;-78
2024/01/23 05:52:30;;;;;;;13.30;3.38;;;4.70;99.90;;;;;;5051298;28;20079;-81
2024/01/23 05:54:56;;;;;;;12.40;2.78;;;4.70;99.90;;;;;;5053633;28;20025;-82
2024/01/23 05:57:21;;;;;;;23.15;3.45;;;4.80;99.90;;;;;;5042595;28;20120;-82
2024/01/23 05:59:47;;;;;;;12.90;2.75;;;4.90;99.90;;;;;;5059655;28;20392;-79
2024/01/23 06:02:15;;;;;;;19.40;3.17;;;4.90;99.90;;;;;;5052525;28;20024;-87
2024/01/23 06:04:42;;;;;;;25.60;3.40;;;5.00;99.90;;;;;;5044965;28;20130;-80
2024/01/23 06:07:07;;;;;;;19.23;3.80;;;5.10;99.90;;;;;;5044308;28;20033;-81
2024/01/23 06:09:33;;;;;;;17.85;3.67;;;5.10;99.90;;;;;;5046164;28;20021;-79
2024/01/23 06:11:59;;;;;;;16.30;3.30;;;5.10;99.90;;;;;;5048267;28;20174;-81
2024/01/23 06:14:28;;;;;;;17.77;3.42;;;5.10;99.90;;;;;;5055017;28;20052;-81
2024/01/23 06:16:56;;;;;;;22.52;4.72;;;5.20;99.90;;;;;;5051300;28;20129;-80
2024/01/23 06:19:22;;;;;;;18.80;3.85;;;5.20;99.90;;;;;;5052018;28;20021;-84
2024/01/23 06:21:48;;;;;;;17.00;3.78;;;5.20;99.90;;;;;;5054216;28;20166;-81
2024/01/23 06:24:14;;;;;;;25.70;4.47;;;5.30;99.90;;;;;;5047236;28;20035;-81
2024/01/23 06:26:40;;;;;;;26.17;4.43;;;5.30;99.90;;;;;;5048267;28;20041;-80
2024/01/23 06:29:06;;;;;;;25.40;3.90;;;5.30;99.90;;;;;;5045322;28;20132;-85
2024/01/23 06:31:32;;;;;;;19.90;4.63;;;5.30;99.90;;;;;;5050859;28;20024;-82
2024/01/23 06:33:57;;;;;;;25.45;3.97;;;5.40;99.90;;;;;;5047691;28;20335;-83
2024/01/23 06:36:23;;;;;;;22.00;4.93;;;5.40;99.90;;;;;;5047148;28;20033;-82
2024/01/23 06:38:49;;;;;;;28.63;4.60;;;5.40;99.90;;;;;;5047231;28;20504;-86
2024/01/23 06:41:14;;;;;;;20.85;3.65;;;5.40;99.90;;;;;;5048032;28;20393;-81
2024/01/23 06:43:40;;;;;;;46.97;7.10;;;5.40;99.90;;;;;;5024791;28;20040;-83
2024/01/23 06:46:06;;;;;;;26.15;6.32;;;5.40;99.90;;;;;;5055108;28;20029;-80
2024/01/23 06:48:32;;;;;;;22.63;3.80;;;5.40;99.90;;;;;;5046129;28;20048;-81
2024/01/23 06:50:58;;;;;;;34.92;4.78;;;5.40;99.90;;;;;;5053083;28;20052;-82
2024/01/23 06:53:23;;;;;;;25.08;5.20;;;5.40;99.90;;;;;;5046546;28;20059;-83
2024/01/23 06:55:49;;;;;;;25.77;5.63;;;5.40;99.90;;;;;;5045086;28;20037;-83
2024/01/23 06:58:17;;;;;;;23.38;4.30;;;5.40;99.90;;;;;;5047037;28;20048;-84
2024/01/23 07:00:43;;;;;;;18.58;4.15;;;5.30;99.90;;;;;;5035810;28;20119;-80
2024/01/23 07:03:09;;;;;;;30.77;5.90;;;5.30;99.90;;;;;;5041530;28;20119;-80
2024/01/23 07:05:35;;;;;;;39.05;6.72;;;5.30;99.90;;;;;;5053861;28;20111;-82
2024/01/23 07:08:02;;;;;;;34.22;5.35;;;5.30;99.90;;;;;;5048898;28;20044;-83
2024/01/23 07:10:28;;;;;;;40.60;7.43;;;5.40;99.90;;;;;;5048743;28;20350;-82
2024/01/23 07:12:55;;;;;;;32.40;5.13;;;5.40;99.90;;;;;;5046622;28;20406;-84
2024/01/23 07:15:21;;;;;;;33.35;5.82;;;5.30;99.90;;;;;;5032750;28;20025;-82
2024/01/23 07:17:47;;;;;;;55.42;16.20;;;5.40;99.90;;;;;;5053250;28;20039;-80
2024/01/23 07:20:12;;;;;;;42.85;7.25;;;5.30;99.90;;;;;;5046484;28;20521;-82
2024/01/23 07:22:38;;;;;;;41.65;8.98;;;5.40;99.90;;;;;;5046586;28;20052;-81
2024/01/23 07:25:04;;;;;;;49.38;9.43;;;5.40;99.90;;;;;;5027904;28;20039;-82
2024/01/23 07:27:30;;;;;;;40.53;6.50;;;5.40;99.90;;;;;;5037660;28;20127;-80
2024/01/23 07:29:56;;;;;;;33.45;4.25;;;5.40;99.90;;;;;;5054204;28;20029;-82
2024/01/23 07:32:22;;;;;;;28.30;6.25;;;5.40;99.90;;;;;;5044819;28;20037;-83
2024/01/23 07:34:47;;;;;;;32.58;5.18;;;5.40;99.90;;;;;;5041508;28;20033;-83
2024/01/23 07:37:13;;;;;;;40.22;4.75;;;5.50;99.90;;;;;;5052885;28;20530;-87
2024/01/23 07:39:39;;;;;;;42.00;6.70;;;5.50;99.90;;;;;;5044665;28;20021;-84
2024/01/23 07:42:05;;;;;;;28.25;5.07;;;5.60;99.90;;;;;;5041455;28;20151;-85
2024/01/23 07:44:33;;;;;;;29.80;5.53;;;5.60;99.90;;;;;;5040821;28;20489;-82
2024/01/23 07:46:59;;;;;;;37.05;6.60;;;5.60;99.90;;;;;;5044349;28;20045;-82
2024/01/23 07:49:25;;;;;;;25.58;4.35;;;5.60;99.90;;;;;;5047715;28;20074;-82
2024/01/23 07:51:51;;;;;;;37.53;6.25;;;5.60;99.90;;;;;;5058480;28;20024;-80
2024/01/23 07:54:17;;;;;;;35.97;6.55;;;5.60;99.90;;;;;;5060473;28;20092;-85
2024/01/23 07:56:43;;;;;;;38.55;4.93;;;5.50;99.90;;;;;;5046447;28;20041;-81
2024/01/23 07:59:09;;;;;;;32.10;5.22;;;5.60;99.90;;;;;;5029331;28;20032;-82
2024/01/23 08:01:35;;;;;;;22.88;5.22;;;5.60;99.90;;;;;;5064660;28;20035;-80
2024/01/23 08:04:03;;;;;;;26.02;5.95;;;5.60;99.90;;;;;;5051140;28;20385;-84
2024/01/23 08:06:32;;;;;;;31.00;5.32;;;5.60;99.90;;;;;;5060807;28;20041;-82
2024/01/23 08:08:58;;;;;;;26.17;4.82;;;5.60;99.90;;;;;;5061281;28;20485;-82
2024/01/23 08:11:23;;;;;;;39.92;5.55;;;5.70;99.90;;;;;;5057453;28;20481;-86
2024/01/23 08:13:49;;;;;;;30.10;5.35;;;5.60;99.90;;;;;;5065937;28;20040;-79
2024/01/23 08:16:16;;;;;;;30.80;4.70;;;5.70;99.90;;;;;;5058245;28;20366;-82
2024/01/23 08:18:42;;;;;;;27.40;4.57;;;5.70;99.90;;;;;;5054888;28;20040;-79
2024/01/23 08:21:09;;;;;;;28.35;6.82;;;5.70;99.90;;;;;;5066386;28;20067;-80
2024/01/23 08:23:35;;;;;;;30.88;5.00;;;5.70;99.90;;;;;;5055836;28;20025;-81
2024/01/23 08:26:02;;;;;;;21.27;4.40;;;5.70;99.90;;;;;;5063026;28;20425;-82
2024/01/23 08:28:28;;;;;;;28.23;4.50;;;5.70;99.90;;;;;;5060229;28;20110;-81
2024/01/23 08:30:53;;;;;;;35.80;7.50;;;5.70;99.90;;;;;;5065076;28;20529;-80
2024/01/23 08:33:22;;;;;;;27.90;4.70;;;5.70;99.90;;;;;;5066284;28;20031;-79
2024/01/23 08:35:48;;;;;;;32.95;4.40;;;5.70;99.90;;;;;;5056782;28;20029;-83
2024/01/23 08:38:14;;;;;;;23.23;4.13;;;5.70;99.90;;;;;;5061867;28;20047;-82
2024/01/23 08:40:41;;;;;;;23.98;5.03;;;5.70;99.90;;;;;;5066440;28;20047;-80
2024/01/23 08:43:07;;;;;;;31.05;5.05;;;5.80;99.90;;;;;;5063424;28;20025;-81
2024/01/23 08:45:33;;;;;;;28.77;4.90;;;5.80;99.90;;;;;;5063157;28;20111;-82
2024/01/23 08:47:59;;;;;;;31.42;4.55;;;5.80;99.90;;;;;;5063637;28;20131;-83
2024/01/23 08:50:25;;;;;;;32.13;4.97;;;5.80;99.90;;;;;;5059440;28;20439;-81
2024/01/23 08:52:53;;;;;;;26.48;4.60;;;5.80;99.90;;;;;;5065767;28;20108;-82
2024/01/23 08:55:19;;;;;;;42.97;5.13;;;5.90;99.90;;;;;;5050373;28;20142;-80
2024/01/23 08:57:47;;;;;;;29.75;5.18;;;5.90;99.90;;;;;;5063399;28;20527;-87
2024/01/23 09:00:13;;;;;;;28.42;4.30;;;5.90;99.90;;;;;;5059885;28;20127;-80
2024/01/23 09:02:39;;;;;;;35.55;5.03;;;6.00;99.90;;;;;;5056968;28;20060;-82
2024/01/23 09:05:05;;;;;;;19.45;4.47;;;6.00;99.90;;;;;;5058346;28;20170;-84
2024/01/23 09:07:34;;;;;;;27.70;5.05;;;6.00;99.90;;;;;;5066155;28;20053;-79
2024/01/23 09:09:59;;;;;;;28.85;4.95;;;5.90;99.90;;;;;;5054761;28;20260;-83
2024/01/23 09:12:25;;;;;;;32.40;4.60;;;5.90;99.90;;;;;;5056263;28;20029;-81
2024/01/23 09:14:51;;;;;;;34.05;6.80;;;5.90;99.90;;;;;;5043897;28;20024;-80
2024/01/23 09:17:16;;;;;;;22.40;5.50;;;5.80;99.90;;;;;;5043414;28;20658;-82
2024/01/23 09:19:42;;;;;;;40.80;9.25;;;5.80;99.90;;;;;;5058488;28;20502;-80
2024/01/23 09:22:08;;;;;;;27.23;6.75;;;5.80;99.90;;;;;;5056194;28;20055;-79
2024/01/23 09:24:34;;;;;;;47.53;9.65;;;5.80;99.90;;;;;;5057280;28;20056;-79
2024/01/23 09:27:01;;;;;;;30.58;6.93;;;5.90;99.90;;;;;;5062109;28;20194;-82
2024/01/23 09:29:27;;;;;;;47.00;10.25;;;5.90;99.90;;;;;;5065364;28;20079;-79
2024/01/23 09:31:53;;;;;;;56.63;16.15;;;6.00;99.90;;;;;;5064868;28;20028;-80
2024/01/23 09:34:18;;;;;;;33.80;8.00;;;6.00;99.90;;;;;;5059447;28;20474;-81
2024/01/23 09:36:44;;;;;;;25.08;4.45;;;6.10;99.90;;;;;;5055651;28;20032;-80
2024/01/23 09:39:13;;;;;;;16.75;4.80;;;6.10;99.90;;;;;;5062439;28;20031;-80
2024/01/23 09:41:49;;;;;;;26.80;5.28;;;6.20;99.90;;;;;;5064981;28;20752;-79
2024/01/23 09:44:14;;;;;;;21.00;4.75;;;6.30;99.90;;;;;;5062913;28;20021;-80
2024/01/23 09:46:42;;;;;;;25.77;5.10;;;6.30;99.90;;;;;;5062470;28;20113;-80
2024/01/23 09:49:08;;;;;;;22.17;4.82;;;6.30;99.90;;;;;;5053087;28;20028;-80
2024/01/23 09:51:46;;;;;;;41.67;6.60;;;6.30;99.90;;;;;;5063857;28;20043;-84
2024/01/23 09:54:12;;;;;;;34.80;4.65;;;6.30;99.90;;;;;;5057326;28;20033;-80
2024/01/23 09:56:41;;;;;;;25.25;6.00;;;6.30;99.90;;;;;;5066613;28;20332;-80
2024/01/23 09:59:09;;;;;;;24.63;5.45;;;6.40;99.90;;;;;;5054442;28;20036;-80
2024/01/23 10:01:38;;;;;;;28.00;4.57;;;6.40;99.90;;;;;;5061873;28;20029;-82
2024/01/23 10:04:05;;;;;;;31.15;5.03;;;6.50;99.90;;;;;;5059357;28;20040;-80
2024/01/23 10:06:34;;;;;;;29.70;5.20;;;6.50;99.90;;;;;;5051715;28;20102;-78
2024/01/23 10:09:06;;;;;;;34.55;5.53;;;6.50;99.90;;;;;;5060578;28;20439;-81
2024/01/23 10:11:36;;;;;;;38.70;7.28;;;6.60;99.90;;;;;;5053163;28;20028;-78
2024/01/23 10:16:28;;;;;;;;;;;6.70;99.90;;;;;;5049072;28;20400;-85
2024/01/23 10:18:54;;;;;;;18.42;4.82;;;6.70;99.90;;;;;;5040445;28;19986;-80
2024/01/23 10:21:21;;;;;;;31.35;4.60;;;6.60;99.90;;;;;;5040846;28;20482;-80
2024/01/23 10:23:49;;;;;;;23.63;4.78;;;6.60;99.90;;;;;;5037682;28;20033;-83
2024/01/23 10:26:20;;;;;;;31.45;5.78;;;6.60;99.90;;;;;;5035985;28;20567;-84
2024/01/23 10:28:50;;;;;;;29.75;4.95;;;6.60;99.90;;;;;;5022367;28;20037;-86
2024/01/23 10:31:19;;;;;;;28.65;4.65;;;6.60;99.90;;;;;;5042644;28;20543;-91
2024/01/23 10:33:47;;;;;;;28.50;5.05;;;6.60;99.90;;;;;;5020471;28;20112;-79
2024/01/23 10:36:15;;;;;;;25.88;4.00;;;6.60;99.90;;;;;;5040088;28;20044;-82
2024/01/23 10:38:43;;;;;;;38.10;5.32;;;6.60;99.90;;;;;;5020231;28;20032;-81
2024/01/23 10:41:13;;;;;;;21.17;5.00;;;6.60;99.90;;;;;;5035696;28;20064;-79
2024/01/23 10:43:40;;;;;;;21.92;4.05;;;6.70;99.90;;;;;;5025804;28;20029;-83
2024/01/23 10:46:06;;;;;;;33.70;5.85;;;6.80;99.90;;;;;;5039941;28;20044;-79
2024/01/23 10:48:32;;;;;;;27.60;5.00;;;6.80;99.90;;;;;;5020860;28;20424;-81
2024/01/23 10:51:18;;;;;;;22.65;4.95;;;6.80;99.90;;;;;;5022853;28;20029;-79
2024/01/23 10:54:07;;;;;;;32.15;4.97;;;6.70;99.90;;;;;;5034474;28;20061;-87
2024/01/23 10:56:43;;;;;;;29.52;4.88;;;6.70;99.90;;;;;;5038010;28;20497;-81
2024/01/23 10:59:16;;;;;;;31.58;5.60;;;6.60;99.90;;;;;;5038037;28;20043;-82
2024/01/23 11:01:47;;;;;;;28.88;4.82;;;6.60;99.90;;;;;;5033124;28;20040;-80
2024/01/23 11:04:12;;;;;;;31.42;4.90;;;6.60;99.90;;;;;;5038271;28;20025;-77
2024/01/23 11:07:20;;;;;;;25.95;4.13;;;6.70;99.90;;;;;;5036319;28;20029;-80
2024/01/23 11:09:51;;;;;;;20.88;4.57;;;6.70;99.90;;;;;;5001062;28;20045;-79
2024/01/23 11:12:27;;;;;;;52.38;9.35;;;6.70;99.90;;;;;;5017950;28;20067;-80
2024/01/23 11:15:01;;;;;;;29.70;5.45;;;6.80;99.90;;;;;;5030916;28;20555;-80
2024/01/23 11:17:32;;;;;;;41.95;6.68;;;6.80;99.90;;;;;;5017118;28;20037;-79
2024/01/23 11:20:13;;;;;;;25.50;4.63;;;6.80;99.90;;;;;;5017452;28;20021;-81
2024/01/23 11:22:39;;;;;;;27.27;5.20;;;6.80;99.90;;;;;;5012768;28;20087;-81
2024/01/23 11:25:05;;;;;;;37.17;4.70;;;6.90;99.90;;;;;;5015151;28;20366;-82
2024/01/23 11:27:32;;;;;;;37.67;5.35;;;6.90;99.90;;;;;;5010290;28;20084;-81
2024/01/23 11:29:59;;;;;;;31.88;5.57;;;6.90;99.90;;;;;;5006539;28;20030;-84
2024/01/23 11:32:28;;;;;;;29.98;5.38;;;6.90;99.90;;;;;;5004449;28;20041;-83
2024/01/23 11:35:07;;;;;;;37.15;6.93;;;6.90;99.90;;;;;;5011005;28;20044;-83
2024/01/23 11:37:41;;;;;;;30.45;4.88;;;7.00;99.90;;;;;;4996729;28;20025;-79
2024/01/23 11:40:29;;;;;;;31.27;5.82;;;7.00;99.90;;;;;;5013016;28;20029;-81
2024/01/23 11:43:02;;;;;;;36.35;5.95;;;7.10;99.90;;;;;;4999778;28;20025;-83
2024/01/23 11:45:30;;;;;;;33.15;6.03;;;7.20;99.90;;;;;;4994619;28;20033;-80
2024/01/23 11:48:01;;;;;;;48.40;6.60;;;7.20;99.90;;;;;;5011275;28;20291;-82
2024/01/23 11:50:29;;;;;;;26.67;4.80;;;7.20;99.90;;;;;;5012396;28;20112;-83
2024/01/23 11:53:00;;;;;;;43.90;6.22;;;7.20;99.90;;;;;;5020581;28;20079;-87
2024/01/23 11:55:26;;;;;;;32.67;5.63;;;7.10;99.90;;;;;;5021886;28;20050;-80
2024/01/23 11:58:00;;;;;;;39.97;6.30;;;7.10;99.90;;;;;;5006322;28;20022;-80
2024/01/23 12:00:29;;;;;;;34.25;6.82;;;7.20;99.90;;;;;;5011081;28;20029;-86
2024/01/23 12:02:54;;;;;;;44.15;6.13;;;7.20;99.90;;;;;;5009030;28;20304;-83
2024/01/23 12:05:20;;;;;;;34.95;6.18;;;7.20;99.90;;;;;;5015295;28;20025;-78
2024/01/23 12:07:46;;;;;;;39.92;7.78;;;7.20;99.90;;;;;;4997346;28;20779;-79
2024/01/23 12:10:15;;;;;;;36.70;6.72;;;7.20;99.90;;;;;;5009994;28;20038;-82
2024/01/23 12:12:41;;;;;;;45.50;7.90;;;7.20;99.90;;;;;;5004778;28;20029;-82
2024/01/23 12:15:08;;;;;;;35.42;7.20;;;7.10;99.90;;;;;;5005099;28;20057;-83
2024/01/23 12:17:35;;;;;;;28.38;5.47;;;7.10;99.90;;;;;;5002997;28;20068;-85
2024/01/23 12:20:09;;;;;;;24.10;4.78;;;7.10;99.90;;;;;;4999448;28;20113;-82
2024/01/23 12:22:36;;;;;;;48.60;6.25;;;7.10;99.90;;;;;;5011278;28;20736;-78
2024/01/23 12:25:02;;;;;;;37.53;5.85;;;7.10;99.90;;;;;;5004357;28;20152;-82
2024/01/23 12:27:30;;;;;;;47.15;6.40;;;7.10;99.90;;;;;;5004004;28;20034;-82
2024/01/23 12:29:58;;;;;;;39.08;5.32;;;7.10;99.90;;;;;;5004050;28;20048;-83
2024/01/23 12:32:31;;;;;;;39.17;6.13;;;7.20;99.90;;;;;;4985518;28;20029;-82
2024/01/23 12:34:57;;;;;;;31.30;5.47;;;7.10;99.90;;;;;;5002652;28;20088;-87
2024/01/23 12:37:31;;;;;;;42.08;6.88;;;7.10;99.90;;;;;;4988052;28;20056;-81
2024/01/23 12:40:05;;;;;;;30.63;6.05;;;7.10;99.90;;;;;;5002421;28;20108;-82
2024/01/23 12:42:32;;;;;;;39.07;5.83;;;7.10;99.90;;;;;;5003715;28;20073;-80
2024/01/23 12:44:57;;;;;;;30.27;4.60;;;7.10;99.90;;;;;;5002594;28;20059;-80
2024/01/23 12:47:23;;;;;;;40.15;7.20;;;7.10;99.90;;;;;;4991057;28;20568;-80
2024/01/23 12:49:49;;;;;;;32.80;4.93;;;7.10;99.90;;;;;;5006035;28;20112;-83